sensor_id;sensor_type;location;lat;lon;timestamp;P1;durP1;ratioP1;P2;durP2;ratioP2
75682;SDS011;64295;44.772;39.872;2023-01-13T00:05:04;25.35;;;9.23;;
75682;SDS011;64295;44.772;39.872;2023-01-13T00:07:39;30.00;;;11.60;;
75682;SDS011;64295;44.772;39.872;2023-01-13T00:10:08;20.85;;;11.20;;
75682;SDS011;64295;44.772;39.872;2023-01-13T00:12:41;23.73;;;11.13;;
75682;SDS011;64295;44.772;39.872;2023-01-13T00:15:08;23.27;;;10.18;;
75682;SDS011;64295;44.772;39.872;2023-01-13T00:17:36;17.05;;;8.95;;
75682;SDS011;64295;44.772;39.872;2023-01-13T00:20:08;21.23;;;10.20;;
75682;SDS011;64295;44.772;39.872;2023-01-13T00:22:35;24.70;;;11.65;;
75682;SDS011;64295;44.772;39.872;2023-01-13T00:25:01;30.95;;;13.13;;
75682;SDS011;64295;44.772;39.872;2023-01-13T00:27:28;23.52;;;10.93;;
75682;SDS011;64295;44.772;39.872;2023-01-13T00:29:54;28.77;;;12.90;;
75682;SDS011;64295;44.772;39.872;2023-01-13T00:32:21;22.95;;;10.45;;
75682;SDS011;64295;44.772;39.872;2023-01-13T00:34:48;32.85;;;11.73;;
75682;SDS011;64295;44.772;39.872;2023-01-13T00:37:23;25.95;;;11.35;;
75682;SDS011;64295;44.772;39.872;2023-01-13T00:39:54;24.20;;;10.38;;
75682;SDS011;64295;44.772;39.872;2023-01-13T00:42:22;26.00;;;10.90;;
75682;SDS011;64295;44.772;39.872;2023-01-13T00:45:06;20.40;;;8.65;;
75682;SDS011;64295;44.772;39.872;2023-01-13T00:47:32;20.75;;;9.52;;
75682;SDS011;64295;44.772;39.872;2023-01-13T00:49:58;25.58;;;10.35;;
75682;SDS011;64295;44.772;39.872;2023-01-13T00:52:41;29.48;;;10.70;;
75682;SDS011;64295;44.772;39.872;2023-01-13T00:55:06;24.30;;;10.73;;
75682;SDS011;64295;44.772;39.872;2023-01-13T00:57:33;19.10;;;8.95;;
75682;SDS011;64295;44.772;39.872;2023-01-13T00:59:59;22.58;;;9.35;;
75682;SDS011;64295;44.772;39.872;2023-01-13T01:02:26;22.33;;;9.30;;
75682;SDS011;64295;44.772;39.872;2023-01-13T01:04:53;16.55;;;7.95;;
75682;SDS011;64295;44.772;39.872;2023-01-13T01:09:56;20.83;;;8.32;;
75682;SDS011;64295;44.772;39.872;2023-01-13T01:12:23;21.13;;;10.65;;
75682;SDS011;64295;44.772;39.872;2023-01-13T01:14:49;14.20;;;7.47;;
75682;SDS011;64295;44.772;39.872;2023-01-13T01:17:15;19.67;;;8.25;;
75682;SDS011;64295;44.772;39.872;2023-01-13T01:19:41;19.38;;;9.77;;
75682;SDS011;64295;44.772;39.872;2023-01-13T01:22:09;20.58;;;9.98;;
75682;SDS011;64295;44.772;39.872;2023-01-13T01:24:35;22.88;;;9.40;;
75682;SDS011;64295;44.772;39.872;2023-01-13T01:27:01;21.65;;;9.00;;
75682;SDS011;64295;44.772;39.872;2023-01-13T01:29:27;22.15;;;10.15;;
75682;SDS011;64295;44.772;39.872;2023-01-13T01:31:53;27.08;;;10.15;;
75682;SDS011;64295;44.772;39.872;2023-01-13T01:34:21;16.98;;;9.27;;
75682;SDS011;64295;44.772;39.872;2023-01-13T01:36:46;18.05;;;9.52;;
75682;SDS011;64295;44.772;39.872;2023-01-13T01:39:12;18.65;;;8.27;;
75682;SDS011;64295;44.772;39.872;2023-01-13T01:41:38;21.73;;;10.32;;
75682;SDS011;64295;44.772;39.872;2023-01-13T01:47:27;18.27;;;8.52;;
75682;SDS011;64295;44.772;39.872;2023-01-13T01:49:59;29.05;;;10.57;;
75682;SDS011;64295;44.772;39.872;2023-01-13T01:52:30;20.17;;;8.90;;
75682;SDS011;64295;44.772;39.872;2023-01-13T01:55:11;25.45;;;10.77;;
75682;SDS011;64295;44.772;39.872;2023-01-13T02:00:16;19.27;;;9.23;;
75682;SDS011;64295;44.772;39.872;2023-01-13T02:02:42;31.40;;;9.48;;
75682;SDS011;64295;44.772;39.872;2023-01-13T02:05:26;16.20;;;8.35;;
75682;SDS011;64295;44.772;39.872;2023-01-13T02:07:53;20.58;;;10.07;;
75682;SDS011;64295;44.772;39.872;2023-01-13T02:10:23;21.33;;;7.60;;
75682;SDS011;64295;44.772;39.872;2023-01-13T02:12:54;15.50;;;8.02;;
75682;SDS011;64295;44.772;39.872;2023-01-13T02:15:53;20.42;;;9.05;;
75682;SDS011;64295;44.772;39.872;2023-01-13T02:29:47;22.58;;;7.85;;
75682;SDS011;64295;44.772;39.872;2023-01-13T02:35:39;15.45;;;6.38;;
75682;SDS011;64295;44.772;39.872;2023-01-13T02:38:18;21.25;;;6.85;;
75682;SDS011;64295;44.772;39.872;2023-01-13T02:40:55;18.02;;;7.20;;
75682;SDS011;64295;44.772;39.872;2023-01-13T02:43:49;17.50;;;8.18;;
75682;SDS011;64295;44.772;39.872;2023-01-13T02:46:52;11.93;;;6.60;;
75682;SDS011;64295;44.772;39.872;2023-01-13T02:49:27;18.40;;;7.53;;
75682;SDS011;64295;44.772;39.872;2023-01-13T02:51:59;15.60;;;7.97;;
75682;SDS011;64295;44.772;39.872;2023-01-13T02:54:37;18.63;;;8.43;;
75682;SDS011;64295;44.772;39.872;2023-01-13T02:57:09;17.60;;;7.50;;
75682;SDS011;64295;44.772;39.872;2023-01-13T02:59:40;15.70;;;6.80;;
75682;SDS011;64295;44.772;39.872;2023-01-13T03:02:07;26.75;;;8.95;;
75682;SDS011;64295;44.772;39.872;2023-01-13T03:04:56;19.08;;;7.97;;
75682;SDS011;64295;44.772;39.872;2023-01-13T03:07:33;16.85;;;7.55;;
75682;SDS011;64295;44.772;39.872;2023-01-13T03:10:28;19.85;;;7.80;;
75682;SDS011;64295;44.772;39.872;2023-01-13T03:19:00;18.20;;;8.07;;
75682;SDS011;64295;44.772;39.872;2023-01-13T03:21:24;21.00;;;9.60;;
75682;SDS011;64295;44.772;39.872;2023-01-13T03:26:44;17.63;;;9.20;;
75682;SDS011;64295;44.772;39.872;2023-01-13T03:29:16;18.55;;;8.23;;
75682;SDS011;64295;44.772;39.872;2023-01-13T03:32:04;17.23;;;9.25;;
75682;SDS011;64295;44.772;39.872;2023-01-13T03:34:54;23.15;;;8.82;;
75682;SDS011;64295;44.772;39.872;2023-01-13T03:37:50;20.58;;;11.02;;
75682;SDS011;64295;44.772;39.872;2023-01-13T03:40:53;25.05;;;8.82;;
75682;SDS011;64295;44.772;39.872;2023-01-13T03:43:35;19.38;;;8.77;;
75682;SDS011;64295;44.772;39.872;2023-01-13T03:46:27;23.77;;;10.43;;
75682;SDS011;64295;44.772;39.872;2023-01-13T03:49:12;26.13;;;11.35;;
75682;SDS011;64295;44.772;39.872;2023-01-13T03:51:57;23.23;;;11.45;;
75682;SDS011;64295;44.772;39.872;2023-01-13T03:54:29;33.72;;;11.57;;
75682;SDS011;64295;44.772;39.872;2023-01-13T03:56:58;27.13;;;13.25;;
75682;SDS011;64295;44.772;39.872;2023-01-13T03:59:29;32.47;;;13.52;;
75682;SDS011;64295;44.772;39.872;2023-01-13T04:02:00;38.25;;;13.68;;
75682;SDS011;64295;44.772;39.872;2023-01-13T04:04:41;28.67;;;12.48;;
75682;SDS011;64295;44.772;39.872;2023-01-13T04:07:45;20.35;;;10.40;;
75682;SDS011;64295;44.772;39.872;2023-01-13T04:10:52;29.10;;;12.68;;
75682;SDS011;64295;44.772;39.872;2023-01-13T04:13:34;40.08;;;15.27;;
75682;SDS011;64295;44.772;39.872;2023-01-13T04:16:11;25.98;;;11.77;;
75682;SDS011;64295;44.772;39.872;2023-01-13T04:18:54;20.40;;;10.43;;
75682;SDS011;64295;44.772;39.872;2023-01-13T04:21:28;27.95;;;11.23;;
75682;SDS011;64295;44.772;39.872;2023-01-13T04:24:07;23.27;;;8.73;;
75682;SDS011;64295;44.772;39.872;2023-01-13T04:26:34;25.02;;;7.95;;
75682;SDS011;64295;44.772;39.872;2023-01-13T04:29:03;22.65;;;9.43;;
75682;SDS011;64295;44.772;39.872;2023-01-13T04:31:31;15.35;;;7.60;;
75682;SDS011;64295;44.772;39.872;2023-01-13T04:34:02;25.02;;;8.45;;
75682;SDS011;64295;44.772;39.872;2023-01-13T04:36:31;20.02;;;9.38;;
75682;SDS011;64295;44.772;39.872;2023-01-13T04:38:59;23.67;;;10.43;;
75682;SDS011;64295;44.772;39.872;2023-01-13T04:41:25;29.50;;;9.80;;
75682;SDS011;64295;44.772;39.872;2023-01-13T04:43:51;15.55;;;7.63;;
75682;SDS011;64295;44.772;39.872;2023-01-13T04:46:20;15.13;;;7.07;;
75682;SDS011;64295;44.772;39.872;2023-01-13T04:48:52;23.92;;;10.27;;
75682;SDS011;64295;44.772;39.872;2023-01-13T04:51:23;21.33;;;9.45;;
75682;SDS011;64295;44.772;39.872;2023-01-13T04:53:52;35.17;;;8.50;;
75682;SDS011;64295;44.772;39.872;2023-01-13T04:56:42;17.52;;;8.50;;
75682;SDS011;64295;44.772;39.872;2023-01-13T04:59:10;20.23;;;9.10;;
75682;SDS011;64295;44.772;39.872;2023-01-13T05:01:37;16.33;;;7.75;;
75682;SDS011;64295;44.772;39.872;2023-01-13T05:04:06;20.77;;;8.73;;
75682;SDS011;64295;44.772;39.872;2023-01-13T05:06:42;17.55;;;7.57;;
75682;SDS011;64295;44.772;39.872;2023-01-13T05:09:37;20.63;;;8.90;;
75682;SDS011;64295;44.772;39.872;2023-01-13T05:12:03;19.13;;;8.45;;
75682;SDS011;64295;44.772;39.872;2023-01-13T05:14:47;21.08;;;8.50;;
75682;SDS011;64295;44.772;39.872;2023-01-13T05:17:31;21.55;;;9.27;;
75682;SDS011;64295;44.772;39.872;2023-01-13T05:19:57;22.20;;;8.63;;
75682;SDS011;64295;44.772;39.872;2023-01-13T05:22:29;22.98;;;10.63;;
75682;SDS011;64295;44.772;39.872;2023-01-13T05:25:36;17.83;;;8.27;;
75682;SDS011;64295;44.772;39.872;2023-01-13T05:28:10;21.80;;;8.02;;
75682;SDS011;64295;44.772;39.872;2023-01-13T05:30:40;17.58;;;8.48;;
75682;SDS011;64295;44.772;39.872;2023-01-13T05:33:09;20.35;;;8.93;;
75682;SDS011;64295;44.772;39.872;2023-01-13T05:36:06;24.30;;;7.82;;
75682;SDS011;64295;44.772;39.872;2023-01-13T05:38:33;15.23;;;7.95;;
75682;SDS011;64295;44.772;39.872;2023-01-13T05:40:59;15.80;;;7.97;;
75682;SDS011;64295;44.772;39.872;2023-01-13T05:43:43;22.38;;;7.50;;
75682;SDS011;64295;44.772;39.872;2023-01-13T05:46:13;24.65;;;7.18;;
75682;SDS011;64295;44.772;39.872;2023-01-13T05:48:42;19.00;;;8.27;;
75682;SDS011;64295;44.772;39.872;2023-01-13T05:51:09;17.08;;;8.50;;
75682;SDS011;64295;44.772;39.872;2023-01-13T05:53:36;15.93;;;8.35;;
75682;SDS011;64295;44.772;39.872;2023-01-13T05:56:05;14.25;;;7.43;;
75682;SDS011;64295;44.772;39.872;2023-01-13T05:58:32;56.47;;;20.13;;
75682;SDS011;64295;44.772;39.872;2023-01-13T06:00:59;31.65;;;10.35;;
75682;SDS011;64295;44.772;39.872;2023-01-13T06:03:26;20.65;;;8.40;;
75682;SDS011;64295;44.772;39.872;2023-01-13T06:05:52;17.38;;;8.65;;
75682;SDS011;64295;44.772;39.872;2023-01-13T06:08:25;16.20;;;8.48;;
75682;SDS011;64295;44.772;39.872;2023-01-13T06:10:57;21.23;;;8.75;;
75682;SDS011;64295;44.772;39.872;2023-01-13T06:13:24;23.77;;;8.50;;
75682;SDS011;64295;44.772;39.872;2023-01-13T06:15:57;20.92;;;8.98;;
75682;SDS011;64295;44.772;39.872;2023-01-13T06:18:24;14.77;;;7.95;;
75682;SDS011;64295;44.772;39.872;2023-01-13T06:20:55;20.25;;;9.05;;
75682;SDS011;64295;44.772;39.872;2023-01-13T06:23:25;19.13;;;7.95;;
75682;SDS011;64295;44.772;39.872;2023-01-13T06:28:20;19.08;;;8.95;;
75682;SDS011;64295;44.772;39.872;2023-01-13T06:30:47;19.10;;;8.55;;
75682;SDS011;64295;44.772;39.872;2023-01-13T06:33:18;21.02;;;10.38;;
75682;SDS011;64295;44.772;39.872;2023-01-13T06:35:56;23.15;;;9.65;;
75682;SDS011;64295;44.772;39.872;2023-01-13T06:38:24;24.55;;;11.13;;
75682;SDS011;64295;44.772;39.872;2023-01-13T06:40:54;22.88;;;10.98;;
75682;SDS011;64295;44.772;39.872;2023-01-13T06:43:20;16.85;;;9.20;;
75682;SDS011;64295;44.772;39.872;2023-01-13T06:48:15;35.15;;;18.30;;
75682;SDS011;64295;44.772;39.872;2023-01-13T06:50:42;26.30;;;11.82;;
75682;SDS011;64295;44.772;39.872;2023-01-13T06:53:08;24.23;;;11.63;;
75682;SDS011;64295;44.772;39.872;2023-01-13T06:55:34;74.35;;;29.65;;
75682;SDS011;64295;44.772;39.872;2023-01-13T06:58:04;45.38;;;18.13;;
75682;SDS011;64295;44.772;39.872;2023-01-13T07:00:30;42.92;;;18.65;;
75682;SDS011;64295;44.772;39.872;2023-01-13T07:03:06;44.97;;;22.08;;
75682;SDS011;64295;44.772;39.872;2023-01-13T07:05:39;52.75;;;23.88;;
75682;SDS011;64295;44.772;39.872;2023-01-13T07:08:07;41.92;;;20.02;;
75682;SDS011;64295;44.772;39.872;2023-01-13T07:10:34;43.45;;;17.58;;
75682;SDS011;64295;44.772;39.872;2023-01-13T07:13:01;37.58;;;17.05;;
75682;SDS011;64295;44.772;39.872;2023-01-13T07:15:54;33.05;;;15.77;;
75682;SDS011;64295;44.772;39.872;2023-01-13T07:18:25;32.97;;;14.05;;
75682;SDS011;64295;44.772;39.872;2023-01-13T07:20:56;33.60;;;16.55;;
75682;SDS011;64295;44.772;39.872;2023-01-13T07:23:27;24.77;;;12.40;;
75682;SDS011;64295;44.772;39.872;2023-01-13T07:25:57;33.38;;;13.18;;
75682;SDS011;64295;44.772;39.872;2023-01-13T07:28:24;25.83;;;12.48;;
75682;SDS011;64295;44.772;39.872;2023-01-13T07:30:51;31.60;;;13.30;;
75682;SDS011;64295;44.772;39.872;2023-01-13T07:33:17;25.42;;;13.45;;
75682;SDS011;64295;44.772;39.872;2023-01-13T07:35:43;25.70;;;13.27;;
75682;SDS011;64295;44.772;39.872;2023-01-13T07:38:09;29.08;;;14.57;;
75682;SDS011;64295;44.772;39.872;2023-01-13T07:40:36;27.10;;;13.82;;
75682;SDS011;64295;44.772;39.872;2023-01-13T07:43:02;24.88;;;13.52;;
75682;SDS011;64295;44.772;39.872;2023-01-13T07:45:46;28.63;;;12.32;;
75682;SDS011;64295;44.772;39.872;2023-01-13T07:48:12;28.98;;;13.30;;
75682;SDS011;64295;44.772;39.872;2023-01-13T07:50:38;36.10;;;15.85;;
75682;SDS011;64295;44.772;39.872;2023-01-13T07:53:04;26.77;;;14.00;;
75682;SDS011;64295;44.772;39.872;2023-01-13T07:55:30;41.17;;;17.35;;
75682;SDS011;64295;44.772;39.872;2023-01-13T07:57:57;44.10;;;22.25;;
75682;SDS011;64295;44.772;39.872;2023-01-13T08:00:23;44.22;;;22.92;;
75682;SDS011;64295;44.772;39.872;2023-01-13T08:02:49;47.58;;;22.13;;
75682;SDS011;64295;44.772;39.872;2023-01-13T08:05:14;37.70;;;21.40;;
75682;SDS011;64295;44.772;39.872;2023-01-13T08:07:40;27.90;;;12.70;;
75682;SDS011;64295;44.772;39.872;2023-01-13T08:10:06;23.23;;;13.60;;
75682;SDS011;64295;44.772;39.872;2023-01-13T08:12:33;24.95;;;12.18;;
75682;SDS011;64295;44.772;39.872;2023-01-13T08:15:17;27.35;;;12.68;;
75682;SDS011;64295;44.772;39.872;2023-01-13T08:17:42;22.77;;;11.82;;
75682;SDS011;64295;44.772;39.872;2023-01-13T08:20:08;21.30;;;11.55;;
75682;SDS011;64295;44.772;39.872;2023-01-13T08:22:35;22.15;;;10.30;;
75682;SDS011;64295;44.772;39.872;2023-01-13T08:25:01;19.92;;;10.18;;
75682;SDS011;64295;44.772;39.872;2023-01-13T08:27:26;25.30;;;11.35;;
75682;SDS011;64295;44.772;39.872;2023-01-13T08:29:52;23.27;;;11.85;;
75682;SDS011;64295;44.772;39.872;2023-01-13T08:32:18;21.83;;;11.75;;
75682;SDS011;64295;44.772;39.872;2023-01-13T08:34:44;21.45;;;11.68;;
75682;SDS011;64295;44.772;39.872;2023-01-13T08:37:10;25.90;;;12.05;;
75682;SDS011;64295;44.772;39.872;2023-01-13T08:39:36;30.70;;;11.93;;
75682;SDS011;64295;44.772;39.872;2023-01-13T08:42:02;24.67;;;13.00;;
75682;SDS011;64295;44.772;39.872;2023-01-13T08:44:29;34.00;;;15.60;;
75682;SDS011;64295;44.772;39.872;2023-01-13T08:46:57;34.63;;;15.52;;
75682;SDS011;64295;44.772;39.872;2023-01-13T08:49:23;32.30;;;16.13;;
75682;SDS011;64295;44.772;39.872;2023-01-13T08:51:50;32.53;;;17.42;;
75682;SDS011;64295;44.772;39.872;2023-01-13T08:54:17;36.75;;;15.43;;
75682;SDS011;64295;44.772;39.872;2023-01-13T08:56:43;31.17;;;16.27;;
75682;SDS011;64295;44.772;39.872;2023-01-13T08:59:13;37.40;;;17.23;;
75682;SDS011;64295;44.772;39.872;2023-01-13T09:01:40;81.13;;;33.08;;
75682;SDS011;64295;44.772;39.872;2023-01-13T09:04:08;68.40;;;29.08;;
75682;SDS011;64295;44.772;39.872;2023-01-13T09:06:43;50.13;;;23.20;;
75682;SDS011;64295;44.772;39.872;2023-01-13T09:09:09;53.45;;;25.50;;
75682;SDS011;64295;44.772;39.872;2023-01-13T09:11:36;30.73;;;17.92;;
75682;SDS011;64295;44.772;39.872;2023-01-13T09:14:24;34.55;;;13.85;;
75682;SDS011;64295;44.772;39.872;2023-01-13T09:16:51;30.85;;;14.13;;
75682;SDS011;64295;44.772;39.872;2023-01-13T09:19:17;38.42;;;18.73;;
75682;SDS011;64295;44.772;39.872;2023-01-13T09:21:43;45.92;;;24.15;;
75682;SDS011;64295;44.772;39.872;2023-01-13T09:24:09;28.08;;;14.18;;
75682;SDS011;64295;44.772;39.872;2023-01-13T09:26:35;59.53;;;27.75;;
75682;SDS011;64295;44.772;39.872;2023-01-13T09:29:02;29.77;;;14.70;;
75682;SDS011;64295;44.772;39.872;2023-01-13T09:31:28;15.43;;;8.48;;
75682;SDS011;64295;44.772;39.872;2023-01-13T09:33:59;17.63;;;7.68;;
75682;SDS011;64295;44.772;39.872;2023-01-13T09:36:44;17.08;;;7.78;;
75682;SDS011;64295;44.772;39.872;2023-01-13T09:39:10;8.30;;;5.03;;
75682;SDS011;64295;44.772;39.872;2023-01-13T09:41:39;10.88;;;5.70;;
75682;SDS011;64295;44.772;39.872;2023-01-13T09:44:38;10.65;;;5.55;;
75682;SDS011;64295;44.772;39.872;2023-01-13T09:48:00;15.10;;;7.00;;
75682;SDS011;64295;44.772;39.872;2023-01-13T09:56:12;8.55;;;5.60;;
75682;SDS011;64295;44.772;39.872;2023-01-13T09:58:38;15.18;;;6.68;;
75682;SDS011;64295;44.772;39.872;2023-01-13T10:03:48;12.02;;;6.07;;
75682;SDS011;64295;44.772;39.872;2023-01-13T10:06:18;11.23;;;5.50;;
75682;SDS011;64295;44.772;39.872;2023-01-13T10:08:48;10.52;;;5.60;;
75682;SDS011;64295;44.772;39.872;2023-01-13T10:14:04;12.73;;;5.82;;
75682;SDS011;64295;44.772;39.872;2023-01-13T10:24:53;10.50;;;4.95;;
75682;SDS011;64295;44.772;39.872;2023-01-13T10:27:42;9.18;;;4.50;;
75682;SDS011;64295;44.772;39.872;2023-01-13T10:30:18;9.52;;;5.10;;
75682;SDS011;64295;44.772;39.872;2023-01-13T10:32:56;8.32;;;4.60;;
75682;SDS011;64295;44.772;39.872;2023-01-13T10:38:41;6.60;;;3.95;;
75682;SDS011;64295;44.772;39.872;2023-01-13T10:46:32;15.00;;;6.93;;
75682;SDS011;64295;44.772;39.872;2023-01-13T10:49:00;9.38;;;5.50;;
75682;SDS011;64295;44.772;39.872;2023-01-13T10:51:45;7.57;;;4.63;;
75682;SDS011;64295;44.772;39.872;2023-01-13T10:56:37;10.40;;;5.15;;
75682;SDS011;64295;44.772;39.872;2023-01-13T11:01:51;11.55;;;5.90;;
75682;SDS011;64295;44.772;39.872;2023-01-13T11:05:09;10.00;;;5.18;;
75682;SDS011;64295;44.772;39.872;2023-01-13T11:07:23;12.05;;;5.38;;
75682;SDS011;64295;44.772;39.872;2023-01-13T11:10:02;6.88;;;4.50;;
75682;SDS011;64295;44.772;39.872;2023-01-13T11:12:34;8.98;;;4.70;;
75682;SDS011;64295;44.772;39.872;2023-01-13T11:15:08;11.23;;;5.97;;
75682;SDS011;64295;44.772;39.872;2023-01-13T11:20:54;7.47;;;4.00;;
75682;SDS011;64295;44.772;39.872;2023-01-13T11:26:03;7.55;;;3.97;;
75682;SDS011;64295;44.772;39.872;2023-01-13T11:28:37;11.77;;;5.18;;
75682;SDS011;64295;44.772;39.872;2023-01-13T11:31:16;8.65;;;3.83;;
75682;SDS011;64295;44.772;39.872;2023-01-13T11:34:11;9.25;;;4.57;;
75682;SDS011;64295;44.772;39.872;2023-01-13T11:36:50;8.65;;;4.95;;
75682;SDS011;64295;44.772;39.872;2023-01-13T11:41:51;12.45;;;5.63;;
75682;SDS011;64295;44.772;39.872;2023-01-13T11:44:50;14.93;;;5.38;;
75682;SDS011;64295;44.772;39.872;2023-01-13T11:47:36;15.02;;;6.20;;
75682;SDS011;64295;44.772;39.872;2023-01-13T11:50:03;11.32;;;4.95;;
75682;SDS011;64295;44.772;39.872;2023-01-13T11:52:53;15.25;;;6.10;;
75682;SDS011;64295;44.772;39.872;2023-01-13T12:16:12;9.43;;;4.82;;
75682;SDS011;64295;44.772;39.872;2023-01-13T12:18:38;9.10;;;4.20;;
75682;SDS011;64295;44.772;39.872;2023-01-13T12:21:16;14.50;;;5.93;;
75682;SDS011;64295;44.772;39.872;2023-01-13T12:26:29;6.82;;;3.80;;
75682;SDS011;64295;44.772;39.872;2023-01-13T12:29:16;16.27;;;5.30;;
75682;SDS011;64295;44.772;39.872;2023-01-13T12:31:47;18.85;;;8.05;;
75682;SDS011;64295;44.772;39.872;2023-01-13T12:34:20;10.88;;;4.97;;
75682;SDS011;64295;44.772;39.872;2023-01-13T12:37:04;12.98;;;6.18;;
75682;SDS011;64295;44.772;39.872;2023-01-13T12:45:40;13.00;;;5.15;;
75682;SDS011;64295;44.772;39.872;2023-01-13T12:48:17;10.10;;;4.85;;
75682;SDS011;64295;44.772;39.872;2023-01-13T12:52:12;11.90;;;5.00;;
75682;SDS011;64295;44.772;39.872;2023-01-13T12:56:55;11.70;;;5.38;;
75682;SDS011;64295;44.772;39.872;2023-01-13T13:01:49;12.20;;;4.40;;
75682;SDS011;64295;44.772;39.872;2023-01-13T13:04:16;12.88;;;4.70;;
75682;SDS011;64295;44.772;39.872;2023-01-13T13:07:13;12.38;;;5.00;;
75682;SDS011;64295;44.772;39.872;2023-01-13T13:09:46;12.82;;;5.30;;
75682;SDS011;64295;44.772;39.872;2023-01-13T13:23:44;10.57;;;5.28;;
75682;SDS011;64295;44.772;39.872;2023-01-13T13:26:38;17.30;;;5.88;;
75682;SDS011;64295;44.772;39.872;2023-01-13T13:40:48;13.20;;;5.60;;
75682;SDS011;64295;44.772;39.872;2023-01-13T13:43:42;11.13;;;5.57;;
75682;SDS011;64295;44.772;39.872;2023-01-13T13:46:29;14.27;;;5.15;;
75682;SDS011;64295;44.772;39.872;2023-01-13T13:49:12;11.38;;;5.55;;
75682;SDS011;64295;44.772;39.872;2023-01-13T13:54:15;12.40;;;5.82;;
75682;SDS011;64295;44.772;39.872;2023-01-13T13:56:44;11.90;;;5.30;;
75682;SDS011;64295;44.772;39.872;2023-01-13T13:59:13;12.65;;;5.22;;
75682;SDS011;64295;44.772;39.872;2023-01-13T14:01:48;11.30;;;5.00;;
75682;SDS011;64295;44.772;39.872;2023-01-13T14:04:24;12.98;;;6.10;;
75682;SDS011;64295;44.772;39.872;2023-01-13T14:09:25;16.65;;;5.03;;
75682;SDS011;64295;44.772;39.872;2023-01-13T14:11:57;13.15;;;5.45;;
75682;SDS011;64295;44.772;39.872;2023-01-13T14:14:25;16.98;;;5.78;;
75682;SDS011;64295;44.772;39.872;2023-01-13T14:16:51;16.08;;;6.60;;
75682;SDS011;64295;44.772;39.872;2023-01-13T14:22:01;19.50;;;6.82;;
75682;SDS011;64295;44.772;39.872;2023-01-13T14:24:29;20.15;;;6.68;;
75682;SDS011;64295;44.772;39.872;2023-01-13T14:27:09;21.10;;;8.05;;
75682;SDS011;64295;44.772;39.872;2023-01-13T14:29:39;24.52;;;7.88;;
75682;SDS011;64295;44.772;39.872;2023-01-13T14:32:05;23.83;;;8.30;;
75682;SDS011;64295;44.772;39.872;2023-01-13T14:34:32;26.88;;;9.63;;
75682;SDS011;64295;44.772;39.872;2023-01-13T14:37:00;23.75;;;7.95;;
75682;SDS011;64295;44.772;39.872;2023-01-13T14:42:00;28.70;;;10.52;;
75682;SDS011;64295;44.772;39.872;2023-01-13T14:44:28;25.50;;;10.65;;
75682;SDS011;64295;44.772;39.872;2023-01-13T14:47:00;25.48;;;11.23;;
75682;SDS011;64295;44.772;39.872;2023-01-13T14:52:18;27.42;;;10.40;;
75682;SDS011;64295;44.772;39.872;2023-01-13T14:54:48;29.63;;;11.52;;
75682;SDS011;64295;44.772;39.872;2023-01-13T14:59:48;35.55;;;12.52;;
75682;SDS011;64295;44.772;39.872;2023-01-13T15:04:54;35.63;;;14.02;;
75682;SDS011;64295;44.772;39.872;2023-01-13T15:10:34;36.50;;;15.38;;
75682;SDS011;64295;44.772;39.872;2023-01-13T15:16:13;37.15;;;13.77;;
75682;SDS011;64295;44.772;39.872;2023-01-13T15:18:49;41.00;;;14.43;;
75682;SDS011;64295;44.772;39.872;2023-01-13T15:21:16;40.85;;;15.98;;
75682;SDS011;64295;44.772;39.872;2023-01-13T15:23:43;41.45;;;17.08;;
75682;SDS011;64295;44.772;39.872;2023-01-13T15:26:14;41.88;;;16.45;;
75682;SDS011;64295;44.772;39.872;2023-01-13T15:28:49;40.03;;;16.42;;
75682;SDS011;64295;44.772;39.872;2023-01-13T15:31:16;47.65;;;19.67;;
75682;SDS011;64295;44.772;39.872;2023-01-13T15:33:42;51.05;;;19.98;;
75682;SDS011;64295;44.772;39.872;2023-01-13T15:36:30;55.28;;;19.67;;
75682;SDS011;64295;44.772;39.872;2023-01-13T16:36:19;45.90;;;18.42;;
75682;SDS011;64295;44.772;39.872;2023-01-13T16:38:46;46.13;;;17.88;;
75682;SDS011;64295;44.772;39.872;2023-01-13T16:41:13;36.38;;;15.32;;
75682;SDS011;64295;44.772;39.872;2023-01-13T16:43:39;41.08;;;18.63;;
75682;SDS011;64295;44.772;39.872;2023-01-13T16:46:13;36.83;;;16.35;;
75682;SDS011;64295;44.772;39.872;2023-01-13T16:48:53;32.60;;;15.73;;
75682;SDS011;64295;44.772;39.872;2023-01-13T16:51:21;32.45;;;14.38;;
75682;SDS011;64295;44.772;39.872;2023-01-13T16:53:48;32.15;;;14.45;;
75682;SDS011;64295;44.772;39.872;2023-01-13T16:56:30;36.45;;;13.80;;
75682;SDS011;64295;44.772;39.872;2023-01-13T16:59:00;35.20;;;14.32;;
75682;SDS011;64295;44.772;39.872;2023-01-13T17:01:34;25.80;;;12.77;;
75682;SDS011;64295;44.772;39.872;2023-01-13T17:09:03;34.47;;;12.52;;
75682;SDS011;64295;44.772;39.872;2023-01-13T17:11:37;32.45;;;13.18;;
75682;SDS011;64295;44.772;39.872;2023-01-13T17:14:03;33.83;;;12.82;;
75682;SDS011;64295;44.772;39.872;2023-01-13T17:16:29;33.22;;;15.02;;
75682;SDS011;64295;44.772;39.872;2023-01-13T17:18:54;35.38;;;14.73;;
75682;SDS011;64295;44.772;39.872;2023-01-13T17:21:20;29.48;;;14.38;;
75682;SDS011;64295;44.772;39.872;2023-01-13T17:23:46;31.02;;;14.00;;
75682;SDS011;64295;44.772;39.872;2023-01-13T17:26:17;40.13;;;14.85;;
75682;SDS011;64295;44.772;39.872;2023-01-13T17:28:53;31.73;;;14.95;;
75682;SDS011;64295;44.772;39.872;2023-01-13T17:31:19;32.38;;;15.32;;
75682;SDS011;64295;44.772;39.872;2023-01-13T17:33:45;33.25;;;15.50;;
75682;SDS011;64295;44.772;39.872;2023-01-13T17:36:11;34.47;;;15.32;;
75682;SDS011;64295;44.772;39.872;2023-01-13T17:38:37;35.75;;;15.38;;
75682;SDS011;64295;44.772;39.872;2023-01-13T17:41:03;40.08;;;16.00;;
75682;SDS011;64295;44.772;39.872;2023-01-13T17:43:30;40.47;;;16.33;;
75682;SDS011;64295;44.772;39.872;2023-01-13T17:45:56;38.28;;;16.52;;
75682;SDS011;64295;44.772;39.872;2023-01-13T17:48:22;35.28;;;14.95;;
75682;SDS011;64295;44.772;39.872;2023-01-13T17:50:50;36.15;;;16.42;;
75682;SDS011;64295;44.772;39.872;2023-01-13T17:53:16;44.30;;;18.38;;
75682;SDS011;64295;44.772;39.872;2023-01-13T17:55:52;31.52;;;15.15;;
75682;SDS011;64295;44.772;39.872;2023-01-13T17:58:20;40.35;;;16.63;;
75682;SDS011;64295;44.772;39.872;2023-01-13T18:00:47;42.15;;;16.98;;
75682;SDS011;64295;44.772;39.872;2023-01-13T18:03:14;35.70;;;16.10;;
75682;SDS011;64295;44.772;39.872;2023-01-13T18:05:41;29.02;;;16.30;;
75682;SDS011;64295;44.772;39.872;2023-01-13T18:08:07;33.08;;;15.88;;
75682;SDS011;64295;44.772;39.872;2023-01-13T18:10:33;35.83;;;15.43;;
75682;SDS011;64295;44.772;39.872;2023-01-13T18:12:59;31.98;;;14.65;;
75682;SDS011;64295;44.772;39.872;2023-01-13T18:15:28;32.72;;;14.80;;
75682;SDS011;64295;44.772;39.872;2023-01-13T18:17:54;32.58;;;15.80;;
75682;SDS011;64295;44.772;39.872;2023-01-13T18:20:20;33.75;;;16.98;;
75682;SDS011;64295;44.772;39.872;2023-01-13T18:23:04;32.58;;;15.90;;
75682;SDS011;64295;44.772;39.872;2023-01-13T18:28:38;31.58;;;14.75;;
75682;SDS011;64295;44.772;39.872;2023-01-13T18:31:03;35.03;;;16.00;;
75682;SDS011;64295;44.772;39.872;2023-01-13T18:33:31;34.70;;;15.43;;
75682;SDS011;64295;44.772;39.872;2023-01-13T18:35:57;30.63;;;14.38;;